Time;durP1;ratioP1;P1;durP2;ratioP2;P2;SDS_P1;SDS_P2;PMS_P1;PMS_P2;Temp;Humidity;BMP_temperature;BMP_pressure;BME280_temperature;BME280_humidity;BME280_pressure;Samples;Min_cycle;Max_cycle;Signal;HPM_P1;HPM_P2
2023/10/25 00:02:18;;;;;;;0.30;0.30;;;;;;;7.48;100.00;100050.41;5094789;28;20031;-55
2023/10/25 00:04:43;;;;;;;0.30;0.30;;;;;;;7.47;100.00;100051.22;5095318;28;20028;-54
2023/10/25 00:07:08;;;;;;;0.30;0.30;;;;;;;7.44;100.00;100048.53;5095453;28;20032;-54
2023/10/25 00:09:34;;;;;;;0.30;0.30;;;;;;;7.41;100.00;100049.31;5094442;28;20016;-53
2023/10/25 00:11:59;;;;;;;0.30;0.30;;;;;;;7.37;100.00;100043.25;5095285;28;20547;-52
2023/10/25 00:14:24;;;;;;;0.30;0.30;;;;;;;7.38;100.00;100042.41;5095158;28;20039;-53
2023/10/25 00:16:50;;;;;;;0.20;0.20;;;;;;;7.37;100.00;100047.50;5093632;28;20428;-52
2023/10/25 00:19:15;;;;;;;0.20;0.20;;;;;;;7.36;100.00;100040.63;5094582;28;20028;-52
2023/10/25 00:21:41;;;;;;;0.30;0.30;;;;;;;7.37;100.00;100033.00;5095230;28;20103;-53
2023/10/25 00:24:07;;;;;;;0.30;0.30;;;;;;;7.39;100.00;100035.59;5094338;28;20552;-51
2023/10/25 00:26:32;;;;;;;0.30;0.30;;;;;;;7.37;100.00;100030.44;5094709;28;20024;-53
2023/10/25 00:28:58;;;;;;;0.20;0.20;;;;;;;7.37;100.00;100033.00;5094950;28;20020;-50
2023/10/25 00:31:24;;;;;;;0.30;0.30;;;;;;;7.35;100.00;100029.50;5094173;28;20024;-54
2023/10/25 00:33:49;;;;;;;0.20;0.20;;;;;;;7.33;100.00;100026.03;5094705;28;20059;-54
2023/10/25 00:36:14;;;;;;;0.30;0.30;;;;;;;7.32;100.00;100033.66;5094587;28;20039;-52
2023/10/25 00:38:39;;;;;;;0.30;0.30;;;;;;;7.27;100.00;100035.22;5094223;28;20062;-53
2023/10/25 00:41:05;;;;;;;0.30;0.30;;;;;;;7.23;100.00;100039.38;5094293;28;20051;-53
2023/10/25 00:43:30;;;;;;;0.30;0.30;;;;;;;7.21;100.00;100039.34;5094541;28;20514;-54
2023/10/25 00:46:10;;;;;;;0.30;0.30;;;;;;;7.18;100.00;100038.38;5093932;28;20035;-53
2023/10/25 00:48:36;;;;;;;0.20;0.20;;;;;;;7.19;100.00;100035.88;5094441;28;20028;-53
2023/10/25 00:51:01;;;;;;;0.30;0.30;;;;;;;7.17;100.00;100037.53;5094501;28;20070;-49
2023/10/25 00:53:29;;;;;;;0.30;0.30;;;;;;;7.18;100.00;100036.72;5093455;28;20036;-53
2023/10/25 00:55:57;;;;;;;0.30;0.30;;;;;;;7.18;100.00;100033.25;5094400;28;20027;-54
2023/10/25 00:58:23;;;;;;;0.30;0.30;;;;;;;7.19;100.00;100038.44;5094278;28;20032;-54
2023/10/25 01:00:50;;;;;;;0.20;0.20;;;;;;;7.17;100.00;100032.41;5094021;28;20456;-54
2023/10/25 01:03:15;;;;;;;0.30;0.30;;;;;;;7.15;100.00;100028.91;5093784;28;20142;-53
2023/10/25 01:05:43;;;;;;;0.30;0.30;;;;;;;7.14;100.00;100029.75;5093609;28;20473;-53
2023/10/25 01:08:08;;;;;;;0.30;0.30;;;;;;;7.09;100.00;100019.34;5093934;28;20020;-53
2023/10/25 01:10:35;;;;;;;0.20;0.20;;;;;;;7.14;100.00;100022.06;5093993;28;20023;-54
2023/10/25 01:13:01;;;;;;;0.30;0.30;;;;;;;7.09;100.00;100026.19;5093699;28;20031;-54
2023/10/25 01:15:26;;;;;;;0.20;0.20;;;;;;;7.09;100.00;100015.94;5093599;28;20020;-54
2023/10/25 01:17:51;;;;;;;0.30;0.30;;;;;;;7.08;100.00;100009.06;5093957;28;20020;-54
2023/10/25 01:20:19;;;;;;;0.20;0.20;;;;;;;7.08;100.00;100019.31;5093144;28;20028;-53
2023/10/25 01:22:45;;;;;;;0.15;0.15;;;;;;;7.04;100.00;100013.22;5093910;28;20020;-54
2023/10/25 01:25:10;;;;;;;0.30;0.30;;;;;;;7.06;100.00;100003.00;5093692;28;20034;-53
2023/10/25 01:27:36;;;;;;;0.30;0.30;;;;;;;7.05;100.00;100009.84;5092996;28;20028;-53
2023/10/25 01:30:01;;;;;;;0.30;0.30;;;;;;;7.07;100.00;100003.06;5093635;28;20081;-53
2023/10/25 01:32:26;;;;;;;0.30;0.30;;;;;;;7.06;100.00;99995.31;5093558;28;20034;-51
2023/10/25 01:34:51;;;;;;;0.30;0.30;;;;;;;7.06;100.00;99985.06;5093148;28;20020;-53
2023/10/25 01:37:17;;;;;;;0.30;0.30;;;;;;;7.00;100.00;99990.03;5093044;28;20028;-54
2023/10/25 01:39:42;;;;;;;0.30;0.30;;;;;;;6.98;100.00;99987.41;5093809;28;20028;-54
2023/10/25 01:42:08;;;;;;;0.30;0.30;;;;;;;6.95;100.00;99984.75;5092939;28;20040;-52
2023/10/25 01:44:33;;;;;;;0.30;0.30;;;;;;;6.94;100.00;99982.16;5093157;28;20493;-52
2023/10/25 01:46:58;;;;;;;0.30;0.30;;;;;;;6.86;100.00;99980.22;5093574;28;20024;-51
2023/10/25 01:49:24;;;;;;;0.20;0.20;;;;;;;6.86;100.00;99972.53;5092586;28;20539;-53
2023/10/25 01:51:49;;;;;;;0.25;0.25;;;;;;;6.75;100.00;99969.66;5093114;28;20062;-53
2023/10/25 01:54:14;;;;;;;0.30;0.30;;;;;;;6.78;100.00;99973.13;5093348;28;20528;-54
2023/10/25 01:56:39;;;;;;;0.30;0.30;;;;;;;6.73;100.00;99970.44;5092872;28;20032;-53
2023/10/25 01:59:05;;;;;;;0.30;0.30;;;;;;;6.74;100.00;99957.69;5093199;28;20438;-54
2023/10/25 02:01:30;;;;;;;0.22;0.22;;;;;;;6.66;100.00;99960.81;5092879;28;20028;-53
2023/10/25 02:03:55;;;;;;;0.30;0.30;;;;;;;6.63;100.00;99953.91;5092623;28;20052;-52
2023/10/25 02:06:21;;;;;;;0.28;0.28;;;;;;;6.64;100.00;99955.66;5092621;28;20024;-54
2023/10/25 02:08:47;;;;;;;0.30;0.30;;;;;;;6.73;100.00;99949.94;5092810;28;20031;-51
2023/10/25 02:11:12;;;;;;;0.30;0.30;;;;;;;6.74;100.00;99951.69;5092807;28;20051;-53
2023/10/25 02:13:38;;;;;;;0.30;0.30;;;;;;;6.77;100.00;99941.53;5093511;28;20032;-52
2023/10/25 02:16:12;;;;;;;0.30;0.30;;;;;;;6.84;100.00;99951.16;5092576;28;20047;-50
2023/10/25 02:18:37;;;;;;;0.30;0.30;;;;;;;6.91;100.00;99945.38;5092768;28;20115;-51
2023/10/25 02:21:03;;;;;;;0.30;0.30;;;;;;;6.96;100.00;99942.06;5092926;28;20502;-53
2023/10/25 02:23:29;;;;;;;0.30;0.30;;;;;;;6.95;100.00;99940.34;5092314;28;20032;-54
2023/10/25 02:25:54;;;;;;;0.30;0.30;;;;;;;6.99;100.00;99934.50;5092429;28;20032;-54
2023/10/25 02:28:19;;;;;;;0.30;0.30;;;;;;;7.03;100.00;99939.72;5092678;28;20060;-53
2023/10/25 02:30:44;;;;;;;0.30;0.30;;;;;;;7.06;100.00;99928.72;5092343;28;20062;-53
2023/10/25 02:33:10;;;;;;;0.30;0.30;;;;;;;7.05;100.00;99926.97;5092317;28;20031;-54
2023/10/25 02:35:35;;;;;;;0.30;0.30;;;;;;;7.00;100.00;99926.84;5092855;28;20036;-53
2023/10/25 02:38:00;;;;;;;0.30;0.30;;;;;;;7.00;100.00;99928.56;5092613;28;20099;-52
2023/10/25 02:40:25;;;;;;;0.30;0.30;;;;;;;6.98;100.00;99919.94;5093993;28;20032;-54
2023/10/25 02:42:51;;;;;;;0.30;0.30;;;;;;;6.99;100.00;99922.53;5097170;28;20024;-53
2023/10/25 02:45:16;;;;;;;0.30;0.30;;;;;;;7.02;100.00;99921.75;5096218;28;20418;-54
2023/10/25 02:47:41;;;;;;;0.30;0.30;;;;;;;7.01;100.00;99910.66;5096600;28;20085;-51
2023/10/25 02:50:07;;;;;;;0.30;0.30;;;;;;;7.01;100.00;99909.78;5096805;28;20525;-53
2023/10/25 02:52:32;;;;;;;0.30;0.30;;;;;;;6.94;100.00;99908.72;5096169;28;20067;-53
2023/10/25 02:54:57;;;;;;;0.22;0.22;;;;;;;6.94;100.00;99902.75;5096725;28;20027;-52
2023/10/25 02:57:23;;;;;;;0.30;0.30;;;;;;;6.85;100.00;99903.34;5096799;28;20156;-54
2023/10/25 02:59:51;;;;;;;0.30;0.30;;;;;;;6.81;100.00;99902.38;5096313;28;20031;-53
2023/10/25 03:02:16;;;;;;;0.30;0.30;;;;;;;6.81;100.00;99892.13;5096359;28;20028;-53
2023/10/25 03:04:42;;;;;;;0.30;0.30;;;;;;;6.78;100.00;99892.06;5096608;28;20028;-53
2023/10/25 03:07:07;;;;;;;0.30;0.30;;;;;;;6.75;100.00;99886.81;5095961;28;20062;-53
2023/10/25 03:09:32;;;;;;;0.30;0.30;;;;;;;6.74;100.00;99890.25;5096243;28;20028;-49
2023/10/25 03:11:58;;;;;;;0.28;0.28;;;;;;;6.72;100.00;99886.75;5096614;28;20024;-53
2023/10/25 03:14:23;;;;;;;0.30;0.30;;;;;;;6.75;100.00;99879.16;5095465;28;20040;-54
2023/10/25 03:16:49;;;;;;;0.30;0.30;;;;;;;6.76;100.00;99870.66;5096503;28;20039;-53
2023/10/25 03:19:14;;;;;;;0.30;0.30;;;;;;;6.73;100.00;99868.00;5095397;28;20410;-52
2023/10/25 03:21:39;;;;;;;0.30;0.30;;;;;;;6.77;100.00;99861.28;5096215;28;20032;-54
2023/10/25 03:24:05;;;;;;;0.30;0.30;;;;;;;6.80;100.00;99864.78;5096118;28;20082;-53
2023/10/25 03:26:30;;;;;;;0.30;0.30;;;;;;;6.83;100.00;99864.00;5095281;28;20034;-54
2023/10/25 03:28:57;;;;;;;0.30;0.30;;;;;;;6.84;100.00;99858.06;5095917;28;20060;-54
2023/10/25 03:31:22;;;;;;;0.30;0.30;;;;;;;6.88;100.00;99858.22;5095868;28;20114;-53
2023/10/25 03:33:48;;;;;;;0.30;0.30;;;;;;;6.90;100.00;99860.81;5095508;28;20167;-53
2023/10/25 03:36:13;;;;;;;0.30;0.30;;;;;;;6.91;100.00;99858.28;5095793;28;20047;-52
2023/10/25 03:38:38;;;;;;;0.30;0.30;;;;;;;6.92;100.00;99854.91;5096104;28;20027;-53
2023/10/25 03:41:08;;;;;;;0.30;0.30;;;;;;;6.95;100.00;99859.25;5095301;28;20471;-53
2023/10/25 03:43:34;;;;;;;0.20;0.20;;;;;;;6.97;100.00;99857.59;5095396;28;20020;-53
2023/10/25 03:46:04;;;;;;;0.30;0.30;;;;;;;6.99;100.00;99855.09;5095765;28;20024;-53
2023/10/25 03:48:30;;;;;;;0.30;0.30;;;;;;;6.99;100.00;99845.69;5094955;28;20032;-51
2023/10/25 03:50:55;;;;;;;0.30;0.30;;;;;;;7.02;100.00;99843.22;5095506;28;20046;-53
2023/10/25 03:53:20;;;;;;;0.30;0.30;;;;;;;7.05;100.00;99843.31;5095560;28;20077;-53
2023/10/25 03:55:55;;;;;;;0.30;0.30;;;;;;;7.05;100.00;99843.31;5095176;28;20032;-52
2023/10/25 03:58:22;;;;;;;0.30;0.30;;;;;;;7.05;100.00;99838.19;5095087;28;20020;-54
2023/10/25 04:00:48;;;;;;;0.30;0.30;;;;;;;7.06;100.00;99833.91;5095476;28;20032;-53
2023/10/25 04:03:13;;;;;;;0.30;0.30;;;;;;;7.05;100.00;99829.59;5094790;28;20039;-53
2023/10/25 04:05:41;;;;;;;0.32;0.32;;;;;;;7.06;100.00;99836.47;5095071;28;20360;-53
2023/10/25 04:08:07;;;;;;;0.30;0.30;;;;;;;7.07;100.00;99833.09;5095463;28;20081;-54
2023/10/25 04:10:32;;;;;;;0.30;0.30;;;;;;;7.07;100.00;99835.66;5094179;28;20024;-54
2023/10/25 04:12:57;;;;;;;0.30;0.30;;;;;;;7.08;100.00;99832.28;5095241;28;20036;-54
2023/10/25 04:15:25;;;;;;;0.32;0.32;;;;;;;7.08;100.00;99824.59;5094419;28;20024;-52
2023/10/25 04:17:50;;;;;;;0.30;0.30;;;;;;;7.10;100.00;99828.03;5095209;28;20051;-53
2023/10/25 04:20:15;;;;;;;0.30;0.30;;;;;;;7.10;100.00;99822.91;5095067;28;20345;-53
2023/10/25 04:22:40;;;;;;;0.30;0.30;;;;;;;7.12;100.00;99823.84;5094384;28;20028;-54
2023/10/25 04:25:06;;;;;;;0.30;0.30;;;;;;;7.12;100.00;99830.66;5094864;28;20028;-54
2023/10/25 04:27:32;;;;;;;0.30;0.30;;;;;;;7.12;100.00;99826.41;5094753;28;20024;-54
2023/10/25 04:29:57;;;;;;;0.30;0.30;;;;;;;7.16;100.00;99823.09;5094403;28;20450;-53
2023/10/25 04:32:23;;;;;;;0.30;0.30;;;;;;;7.16;100.00;99823.09;5094639;28;20031;-54
2023/10/25 04:34:48;;;;;;;0.30;0.30;;;;;;;7.19;100.00;99823.19;5095118;28;20585;-52
2023/10/25 04:37:13;;;;;;;0.30;0.30;;;;;;;7.20;100.00;99817.22;5093942;28;20024;-51
2023/10/25 04:39:39;;;;;;;0.30;0.30;;;;;;;7.22;100.00;99827.53;5094621;28;20069;-53
2023/10/25 04:42:04;;;;;;;0.30;0.30;;;;;;;7.24;100.00;99810.47;5094568;28;20051;-53
2023/10/25 04:44:31;;;;;;;0.30;0.30;;;;;;;7.24;100.00;99819.06;5093635;28;20035;-53
2023/10/25 04:46:57;;;;;;;0.43;0.20;;;;;;;7.28;100.00;99806.31;5094652;28;20077;-54
2023/10/25 04:49:22;;;;;;;0.30;0.30;;;;;;;7.28;100.00;99803.75;5094491;28;20103;-51
2023/10/25 04:51:48;;;;;;;0.20;0.20;;;;;;;7.28;100.00;99799.47;5094126;28;20031;-53
2023/10/25 04:54:13;;;;;;;0.40;0.40;;;;;;;7.30;100.00;99804.66;5094037;28;20028;-53
2023/10/25 04:56:38;;;;;;;0.20;0.20;;;;;;;7.30;100.00;99794.41;5094503;28;20032;-53
2023/10/25 04:59:04;;;;;;;0.30;0.30;;;;;;;7.32;100.00;99795.28;5093699;28;20024;-54
2023/10/25 05:01:29;;;;;;;0.30;0.30;;;;;;;7.31;100.00;99796.13;5094012;28;20030;-53
2023/10/25 05:03:54;;;;;;;0.30;0.30;;;;;;;7.31;100.00;99791.00;5093762;28;20061;-53
2023/10/25 05:06:20;;;;;;;0.30;0.30;;;;;;;7.35;100.00;99787.72;5093560;28;20036;-54
2023/10/25 05:08:45;;;;;;;0.30;0.30;;;;;;;7.36;100.00;99784.28;5094055;28;20463;-54
2023/10/25 05:11:14;;;;;;;0.20;0.20;;;;;;;7.38;100.00;99772.38;5094000;28;20028;-53
2023/10/25 05:13:40;;;;;;;0.30;0.30;;;;;;;7.38;100.00;99772.38;5093731;28;20024;-54
2023/10/25 05:16:06;;;;;;;0.28;0.28;;;;;;;7.38;100.00;99772.38;5094031;28;20030;-54
2023/10/25 05:18:31;;;;;;;0.30;0.30;;;;;;;7.38;100.00;99762.13;5093628;28;20020;-53
2023/10/25 05:20:59;;;;;;;0.30;0.30;;;;;;;7.38;100.00;99751.88;5093409;28;20031;-53
2023/10/25 05:23:32;;;;;;;0.32;0.32;;;;;;;7.38;100.00;99757.00;5093710;28;20031;-54
2023/10/25 05:26:02;;;;;;;0.30;0.30;;;;;;;7.37;100.00;99750.16;5093055;28;20039;-53
2023/10/25 05:28:29;;;;;;;0.30;0.30;;;;;;;7.36;100.00;99751.84;5093270;28;20027;-54
2023/10/25 05:30:59;;;;;;;0.30;0.30;;;;;;;7.37;100.00;99750.16;5094047;28;20016;-52
2023/10/25 05:33:25;;;;;;;0.30;0.30;;;;;;;7.37;100.00;99743.34;5093059;28;20064;-53
2023/10/25 05:35:51;;;;;;;0.30;0.30;;;;;;;7.35;100.00;99737.28;5093628;28;20023;-53
2023/10/25 05:38:17;;;;;;;0.30;0.30;;;;;;;7.36;100.00;99736.47;5093431;28;20028;-52
2023/10/25 05:40:44;;;;;;;0.30;0.30;;;;;;;7.35;100.00;99734.72;5093016;28;20118;-53
2023/10/25 05:43:13;;;;;;;0.30;0.30;;;;;;;7.37;100.00;99735.66;5093189;28;20039;-54
2023/10/25 05:45:39;;;;;;;0.30;0.30;;;;;;;7.40;100.00;99737.44;5093676;28;20035;-52
2023/10/25 05:48:09;;;;;;;0.20;0.20;;;;;;;7.41;100.00;99734.00;5093064;28;20020;-53
2023/10/25 05:50:35;;;;;;;0.30;0.30;;;;;;;7.42;100.00;99725.50;5093025;28;20035;-54
2023/10/25 05:53:01;;;;;;;0.30;0.30;;;;;;;7.42;100.00;99722.94;5093455;28;20024;-53
2023/10/25 05:55:26;;;;;;;0.30;0.30;;;;;;;7.44;100.00;99726.41;5092468;28;20050;-54
2023/10/25 05:57:52;;;;;;;0.30;0.30;;;;;;;7.44;100.00;99718.72;5093000;28;20054;-53
2023/10/25 06:00:18;;;;;;;0.30;0.30;;;;;;;7.43;100.00;99719.53;5093020;28;20040;-53
2023/10/25 06:02:44;;;;;;;0.30;0.30;;;;;;;7.45;100.00;99711.88;5092437;28;20081;-53
2023/10/25 06:05:12;;;;;;;0.30;0.30;;;;;;;7.50;100.00;99715.41;5093308;28;20506;-53
2023/10/25 06:07:38;;;;;;;0.30;0.30;;;;;;;7.46;100.00;99709.34;5093117;28;20467;-53
2023/10/25 06:10:05;;;;;;;0.30;0.30;;;;;;;7.50;100.00;99710.28;5092330;28;20107;-54
2023/10/25 06:12:30;;;;;;;0.30;0.30;;;;;;;7.49;100.00;99709.44;5092882;28;20028;-53
2023/10/25 06:14:56;;;;;;;0.30;0.30;;;;;;;7.51;100.00;99705.19;5091663;28;20020;-52
2023/10/25 06:17:21;;;;;;;0.30;0.30;;;;;;;7.52;100.00;99708.66;5092587;28;20024;-53
2023/10/25 06:19:46;;;;;;;0.28;0.28;;;;;;;7.53;100.00;99711.25;5093006;28;20122;-54
2023/10/25 06:22:15;;;;;;;0.20;0.20;;;;;;;7.55;100.00;99703.56;5092319;28;20020;-52
2023/10/25 06:24:40;;;;;;;0.30;0.30;;;;;;;7.53;100.00;99706.09;5092690;28;20494;-54
2023/10/25 06:27:05;;;;;;;0.30;0.30;;;;;;;7.58;100.00;99704.53;5095880;28;20418;-54
2023/10/25 06:29:31;;;;;;;0.30;0.30;;;;;;;7.58;100.00;99703.66;5112593;28;20027;-53
2023/10/25 06:31:56;;;;;;;0.20;0.20;;;;;;;7.60;100.00;99696.84;5113175;28;20125;-54
2023/10/25 06:34:21;;;;;;;0.30;0.30;;;;;;;7.64;100.00;99692.66;5112810;28;20039;-53
2023/10/25 06:36:48;;;;;;;0.20;0.20;;;;;;;7.65;100.00;99686.72;5112630;28;20024;-54
2023/10/25 06:39:13;;;;;;;0.30;0.30;;;;;;;7.66;100.00;99688.47;5112537;28;20024;-55
2023/10/25 06:41:39;;;;;;;0.30;0.30;;;;;;;7.67;100.00;99678.22;5113133;28;20046;-53
2023/10/25 06:44:05;;;;;;;0.30;0.30;;;;;;;7.69;100.00;99675.69;5112842;28;20405;-54
2023/10/25 06:46:31;;;;;;;0.30;0.30;;;;;;;7.70;100.00;99668.03;5112719;28;20028;-54
2023/10/25 06:48:58;;;;;;;0.30;0.30;;;;;;;7.72;100.00;99665.50;5113247;28;20031;-54
2023/10/25 06:51:24;;;;;;;0.30;0.30;;;;;;;7.74;100.00;99662.13;5112172;28;20360;-53
2023/10/25 06:53:50;;;;;;;0.30;0.30;;;;;;;7.77;100.00;99663.03;5112793;28;20019;-52
2023/10/25 06:56:16;;;;;;;0.30;0.30;;;;;;;7.80;100.00;99660.53;5113035;28;20035;-53
2023/10/25 06:58:42;;;;;;;0.20;0.20;;;;;;;7.84;100.00;99649.53;5112649;28;20422;-50
2023/10/25 07:01:11;;;;;;;0.30;0.30;;;;;;;7.86;100.00;99647.84;5113033;28;20031;-55
2023/10/25 07:03:44;;;;;;;0.30;0.30;;;;;;;7.88;100.00;99641.91;5112891;28;20023;-54
2023/10/25 07:06:11;;;;;;;0.40;0.30;;;;;;;7.93;100.00;99638.56;5111832;28;20035;-53
2023/10/25 07:08:37;;;;;;;0.20;0.20;;;;;;;7.94;100.00;99630.03;5113248;28;20051;-54
2023/10/25 07:11:03;;;;;;;0.30;0.30;;;;;;;7.96;100.00;99628.38;5113069;28;20046;-54
2023/10/25 07:13:29;;;;;;;0.30;0.30;;;;;;;7.97;100.00;99630.13;5111805;28;20486;-55
2023/10/25 07:15:55;;;;;;;0.20;0.20;;;;;;;8.00;100.00;99622.47;5112942;28;20046;-54
2023/10/25 07:18:20;;;;;;;0.30;0.30;;;;;;;8.03;100.00;99625.97;5112146;28;20043;-49
2023/10/25 07:20:46;;;;;;;0.30;0.30;;;;;;;8.08;100.00;99623.47;5112580;28;20031;-55
2023/10/25 07:23:11;;;;;;;0.30;0.30;;;;;;;8.09;100.00;99612.38;5112744;28;20502;-55
2023/10/25 07:25:38;;;;;;;0.30;0.30;;;;;;;8.13;100.00;99606.47;5112516;28;20027;-54
2023/10/25 07:28:04;;;;;;;0.20;0.20;;;;;;;8.14;100.00;99608.22;5116443;28;20034;-53
2023/10/25 07:30:30;;;;;;;0.20;0.20;;;;;;;8.13;100.00;99601.34;5116344;28;20023;-54
2023/10/25 07:32:55;;;;;;;0.30;0.30;;;;;;;8.16;100.00;99596.28;5115862;28;20063;-54
2023/10/25 07:35:21;;;;;;;0.30;0.30;;;;;;;8.17;100.00;99605.72;5115798;28;20019;-54
2023/10/25 07:37:46;;;;;;;0.30;0.30;;;;;;;8.17;100.00;99613.44;5116565;28;20027;-54
2023/10/25 07:40:12;;;;;;;0.20;0.20;;;;;;;8.18;100.00;99612.56;5115647;28;20024;-54
2023/10/25 07:42:37;;;;;;;0.20;0.20;;;;;;;8.18;100.00;99607.44;5115902;28;20047;-54
2023/10/25 07:45:03;;;;;;;0.20;0.20;;;;;;;8.18;100.00;99604.88;5116249;28;20110;-55
2023/10/25 07:47:28;;;;;;;0.25;0.25;;;;;;;8.20;100.00;99599.78;5115423;28;20032;-53
2023/10/25 07:49:55;;;;;;;0.30;0.30;;;;;;;8.25;100.00;99590.47;5115840;28;20489;-54
2023/10/25 07:52:23;;;;;;;0.30;0.30;;;;;;;8.21;100.00;99592.09;5115963;28;20019;-54
2023/10/25 07:54:48;;;;;;;;;;;;;;;8.32;100.00;99588.88;5115492;28;20043;-54
2023/10/25 07:57:13;;;;;;;0.20;0.20;;;;;;;8.29;100.00;99581.09;5115203;28;19912;-53
2023/10/25 07:59:38;;;;;;;0.30;0.30;;;;;;;8.31;100.00;99582.00;5115949;28;20028;-51
2023/10/25 08:02:04;;;;;;;0.25;0.25;;;;;;;8.39;100.00;99572.72;5115114;28;20026;-51
2023/10/25 08:04:29;;;;;;;0.20;0.20;;;;;;;8.51;100.00;99567.84;5115463;28;20024;-49
2023/10/25 08:06:55;;;;;;;0.20;0.20;;;;;;;8.57;100.00;99552.56;5115694;28;20360;-53
2023/10/25 08:09:20;;;;;;;0.20;0.20;;;;;;;8.65;100.00;99549.22;5114402;28;20020;-53
2023/10/25 08:11:45;;;;;;;0.20;0.20;;;;;;;8.64;100.00;99550.09;5115640;28;20048;-55
2023/10/25 08:14:11;;;;;;;0.20;0.20;;;;;;;8.59;100.00;99539.75;5115388;28;20049;-53
2023/10/25 08:16:39;;;;;;;0.20;0.20;;;;;;;8.62;100.00;99538.91;5114870;28;20020;-52
2023/10/25 08:19:09;;;;;;;0.20;0.20;;;;;;;8.56;100.00;99542.25;5115411;28;20497;-56
2023/10/25 08:21:38;;;;;;;0.30;0.30;;;;;;;8.56;100.00;99537.97;5114826;28;20043;-52
2023/10/25 08:24:07;;;;;;;0.30;0.30;;;;;;;8.64;100.00;99535.53;5115096;28;20459;-56
2023/10/25 08:26:39;;;;;;;0.28;0.28;;;;;;;8.55;100.00;99532.81;5115193;28;20019;-55
2023/10/25 08:29:05;;;;;;;0.30;0.30;;;;;;;8.61;100.00;99530.38;5115031;28;20028;-52
2023/10/25 08:31:31;;;;;;;0.28;0.28;;;;;;;8.57;100.00;99524.31;5114771;28;20141;-55
2023/10/25 08:33:56;;;;;;;0.20;0.20;;;;;;;8.57;100.00;99524.31;5115113;28;20035;-54
2023/10/25 08:36:21;;;;;;;0.30;0.30;;;;;;;8.68;100.00;99528.75;5114553;28;20032;-55
2023/10/25 08:38:46;;;;;;;0.20;0.20;;;;;;;8.66;100.00;99522.72;5114007;28;20028;-53
2023/10/25 08:41:12;;;;;;;0.20;0.20;;;;;;;8.70;100.00;99525.38;5114977;28;20067;-56
2023/10/25 08:43:39;;;;;;;0.20;0.20;;;;;;;8.69;100.00;99512.50;5114627;28;20394;-55
2023/10/25 08:46:05;;;;;;;0.20;0.20;;;;;;;8.74;100.00;99513.44;5114583;28;20023;-52
2023/10/25 08:48:31;;;;;;;0.20;0.20;;;;;;;8.78;100.00;99502.38;5114705;28;20103;-54
2023/10/25 08:50:58;;;;;;;0.20;0.20;;;;;;;8.77;100.00;99498.06;5114552;28;20049;-55
2023/10/25 08:53:25;;;;;;;0.20;0.20;;;;;;;8.77;100.00;99498.06;5114814;28;20080;-55
2023/10/25 08:55:52;;;;;;;0.22;0.22;;;;;;;8.76;100.00;99498.06;5114872;28;20467;-55
2023/10/25 08:58:19;;;;;;;0.30;0.30;;;;;;;8.78;100.00;99492.09;5113808;28;20012;-55
2023/10/25 09:00:44;;;;;;;0.20;0.20;;;;;;;8.76;100.00;99486.06;5114920;28;20016;-55
2023/10/25 09:03:32;;;;;;;0.20;0.20;;;;;;;8.81;100.00;99494.69;5114412;28;20517;-55
2023/10/25 09:06:01;;;;;;;0.30;0.30;;;;;;;8.78;100.00;99484.38;5113726;28;20445;-55
2023/10/25 09:08:27;;;;;;;0.30;0.30;;;;;;;8.73;100.00;99481.75;5114343;28;20106;-55
2023/10/25 09:11:02;;;;;;;0.30;0.30;;;;;;;8.75;100.00;99479.19;5113962;28;20063;-55
2023/10/25 09:13:29;;;;;;;0.28;0.28;;;;;;;8.73;100.00;99473.19;5114030;28;20024;-55
2023/10/25 09:16:09;;;;;;;0.20;0.20;;;;;;;8.76;100.00;99468.06;5114246;28;20071;-55
2023/10/25 09:18:36;;;;;;;0.13;0.13;;;;;;;8.72;100.00;99464.59;5113545;28;20531;-51
2023/10/25 09:21:02;;;;;;;0.20;0.20;;;;;;;8.72;100.00;99453.47;5114004;28;20162;-54
2023/10/25 09:23:28;;;;;;;0.30;0.30;;;;;;;8.69;100.00;99454.28;5113883;28;20527;-55
2023/10/25 09:25:58;;;;;;;0.20;0.20;;;;;;;8.70;100.00;99455.13;5113479;28;20111;-55
2023/10/25 09:28:27;;;;;;;0.20;0.20;;;;;;;8.69;100.00;99444.00;5113925;28;20024;-54
2023/10/25 09:31:00;;;;;;;0.20;0.20;;;;;;;8.66;100.00;99446.53;5114214;28;20068;-55
2023/10/25 09:33:30;;;;;;;0.20;0.20;;;;;;;8.68;100.00;99451.69;5113007;28;20551;-55
2023/10/25 09:35:56;;;;;;;0.20;0.20;;;;;;;8.66;100.00;99453.38;5114035;28;20020;-55
2023/10/25 09:38:22;;;;;;;0.20;0.20;;;;;;;8.65;100.00;99454.19;5113552;28;20099;-55
2023/10/25 09:40:49;;;;;;;0.20;0.20;;;;;;;8.67;100.00;99455.94;5113192;28;20122;-55
2023/10/25 09:43:24;;;;;;;0.30;0.30;;;;;;;8.69;100.00;99448.28;5113881;28;20020;-56
2023/10/25 09:45:51;;;;;;;0.30;0.30;;;;;;;8.72;100.00;99443.19;5113909;28;20027;-55
2023/10/25 09:48:18;;;;;;;0.30;0.30;;;;;;;8.71;100.00;99441.47;5112721;28;20475;-56
2023/10/25 09:50:51;;;;;;;0.30;0.30;;;;;;;8.68;100.00;99421.72;5113792;28;20031;-55
2023/10/25 09:53:30;;;;;;;0.30;0.30;;;;;;;8.65;100.00;99420.81;5112875;28;20031;-56
2023/10/25 09:56:03;;;;;;;0.30;0.30;;;;;;;8.60;100.00;99405.34;5113569;28;20475;-56
2023/10/25 09:58:34;;;;;;;0.20;0.20;;;;;;;8.56;100.00;99404.44;5113443;28;20475;-55
2023/10/25 10:01:00;;;;;;;0.20;0.20;;;;;;;8.52;100.00;99400.09;5109987;28;20023;-55
2023/10/25 10:03:32;;;;;;;0.30;0.30;;;;;;;8.49;100.00;99399.19;5112940;28;20044;-53
2023/10/25 10:06:27;;;;;;;0.30;0.30;;;;;;;8.53;100.00;99403.53;5113782;28;20067;-56
2023/10/25 10:09:05;;;;;;;0.30;0.30;;;;;;;8.49;100.00;99400.03;5112994;28;20024;-56
2023/10/25 10:11:37;;;;;;;0.30;0.30;;;;;;;8.48;100.00;99398.34;5113251;28;20024;-57
2023/10/25 10:14:28;;;;;;;0.30;0.30;;;;;;;8.54;100.00;99402.69;5113279;28;20023;-57
2023/10/25 10:17:09;;;;;;;0.30;0.30;;;;;;;8.48;100.00;99388.06;5113204;28;20482;-57
2023/10/25 10:19:37;;;;;;;0.20;0.20;;;;;;;8.50;100.00;99385.53;5113233;28;20023;-57
2023/10/25 10:22:04;;;;;;;0.20;0.20;;;;;;;8.48;100.00;99380.38;5112864;28;20020;-55
2023/10/25 10:24:58;;;;;;;0.30;0.30;;;;;;;8.51;100.00;99362.44;5112756;28;20494;-57
2023/10/25 10:27:52;;;;;;;0.20;0.20;;;;;;;8.56;100.00;99363.34;5113242;28;20277;-56
2023/10/25 10:30:33;;;;;;;0.22;0.22;;;;;;;8.56;100.00;99349.66;5112112;28;20038;-56
2023/10/25 10:33:01;;;;;;;0.28;0.28;;;;;;;8.54;100.00;99347.06;5113185;28;20521;-55
2023/10/25 10:35:28;;;;;;;0.20;0.20;;;;;;;8.54;100.00;99335.94;5112538;28;20156;-56
2023/10/25 10:37:54;;;;;;;0.20;0.20;;;;;;;8.54;100.00;99331.66;5113129;28;20024;-56
2023/10/25 10:40:20;;;;;;;0.20;0.20;;;;;;;8.57;100.00;99323.13;5112763;28;20798;-57
2023/10/25 10:42:45;;;;;;;0.20;0.20;;;;;;;8.56;100.00;99322.28;5112485;28;20047;-53
2023/10/25 10:45:15;;;;;;;0.20;0.20;;;;;;;8.62;100.00;99318.91;5112432;28;20045;-56
2023/10/25 10:48:01;;;;;;;0.20;0.20;;;;;;;8.64;100.00;99313.81;5113241;28;20054;-56
2023/10/25 10:50:26;;;;;;;0.20;0.20;;;;;;;8.64;100.00;99316.38;5112123;28;20034;-56
2023/10/25 10:52:52;;;;;;;0.20;0.20;;;;;;;8.62;100.00;99307.78;5113096;28;20024;-55
2023/10/25 10:55:23;;;;;;;0.28;0.28;;;;;;;8.60;100.00;99301.75;5112847;28;20035;-57
2023/10/25 10:57:49;;;;;;;0.30;0.30;;;;;;;8.62;100.00;99292.38;5112186;28;20023;-55
2023/10/25 11:00:16;;;;;;;0.20;0.20;;;;;;;8.61;100.00;99288.97;5112612;28;20077;-54
2023/10/25 11:02:46;;;;;;;0.20;0.20;;;;;;;8.65;100.00;99282.13;5116863;28;20023;-55
2023/10/25 11:05:15;;;;;;;0.20;0.20;;;;;;;8.66;100.00;99278.72;5116075;28;20068;-55
2023/10/25 11:07:41;;;;;;;0.30;0.30;;;;;;;8.69;100.00;99271.91;5116836;28;20028;-55
2023/10/25 11:10:07;;;;;;;0.30;0.30;;;;;;;8.72;100.00;99273.66;5116740;28;20026;-55
2023/10/25 11:12:33;;;;;;;0.20;0.20;;;;;;;8.71;100.00;99266.78;5116007;28;20023;-55
2023/10/25 11:15:05;;;;;;;0.30;0.30;;;;;;;8.73;100.00;99260.84;5116791;28;20032;-55
2023/10/25 11:17:31;;;;;;;0.30;0.30;;;;;;;8.77;100.00;99251.47;5115875;28;20028;-55
2023/10/25 11:19:57;;;;;;;0.30;0.30;;;;;;;8.78;100.00;99260.03;5116524;28;20054;-55
2023/10/25 11:22:22;;;;;;;0.10;0.10;;;;;;;8.80;100.00;99246.34;5116425;28;20055;-56
2023/10/25 11:24:48;;;;;;;0.20;0.20;;;;;;;8.82;100.00;99247.25;5115966;28;20078;-54
2023/10/25 11:27:13;;;;;;;0.20;0.20;;;;;;;8.83;100.00;99250.66;5116160;28;20099;-55
2023/10/25 11:29:39;;;;;;;0.20;0.20;;;;;;;8.82;100.00;99236.06;5116660;28;20126;-55
2023/10/25 11:32:12;;;;;;;0.22;0.22;;;;;;;8.84;100.00;99232.69;5116051;28;20394;-55